Asan, Guam
Current Conditions -  °F | °C
As of 5:54 PM on Monday 22 Dec 2014 (Local Time) from PGUM Reporting Station
Few Clouds Few Clouds  
Wind Chill: 83°   Ceiling: Unl
Heat Index: 91°   Visibility: 10mi
Dew Point: 76°   Wind: 13mph
Humidity: 79%   Direction: 80°E
Pressure: 29.87"   Gusts: 22mph
Location:  13.47°N, 144.71°E
Report Text: PGUM 220754Z 08011G19KT 10SM FEW021 28/24 A2987 RMK AO2 RAE01 SLP108 P0000 T02830244
Loading
Personal Weather Stations






























Interactive Weather Map New forecast layout! Learn more

10-Day Weather Forecast

Advertisements
Track Severe Weather on mobile